createdAt,value
2022-10-22T00:01:13.063Z,15.17
2022-10-22T00:03:41.078Z,15.18
2022-10-22T00:06:09.256Z,15.20
2022-10-22T00:08:38.688Z,15.20
2022-10-22T00:11:12.246Z,15.24
2022-10-22T00:13:40.470Z,15.28
2022-10-22T00:16:09.206Z,15.25
2022-10-22T00:18:37.626Z,15.29
2022-10-22T00:21:06.924Z,15.27
2022-10-22T00:23:35.345Z,15.23
2022-10-22T00:26:07.336Z,15.23
2022-10-22T00:28:35.194Z,15.15
2022-10-22T00:31:04.067Z,15.13
2022-10-22T00:33:32.095Z,15.17
2022-10-22T00:36:01.211Z,15.15
2022-10-22T00:38:31.480Z,15.06
2022-10-22T00:40:59.334Z,15.08
2022-10-22T00:43:28.396Z,15.04
2022-10-22T00:45:56.374Z,15.08
2022-10-22T00:48:29.642Z,15.08
2022-10-22T00:51:02.902Z,15.04
2022-10-22T00:53:37.288Z,15.07
2022-10-22T00:56:06.554Z,15.15
2022-10-22T00:58:43.594Z,15.21
2022-10-22T01:01:21.421Z,15.27
2022-10-22T01:03:50.489Z,15.18
2022-10-22T01:06:26.098Z,15.23
2022-10-22T01:09:09.705Z,15.27
2022-10-22T01:11:56.760Z,15.23
2022-10-22T01:14:41.466Z,15.27
2022-10-22T01:20:10.193Z,15.17
2022-10-22T01:22:45.849Z,15.12
2022-10-22T01:25:30.980Z,15.10
2022-10-22T01:28:17.626Z,15.22
2022-10-22T01:30:53.150Z,15.28
2022-10-22T01:33:23.876Z,15.27
2022-10-22T01:35:53.709Z,15.19
2022-10-22T01:38:25.135Z,15.23
2022-10-22T01:40:55.830Z,15.26
2022-10-22T01:43:23.820Z,15.25
2022-10-22T01:46:00.193Z,15.09
2022-10-22T01:48:47.884Z,15.09
2022-10-22T01:51:40.829Z,15.13
2022-10-22T01:54:25.377Z,15.17
2022-10-22T01:57:08.762Z,15.10
2022-10-22T01:59:51.456Z,15.03
2022-10-22T02:02:36.733Z,15.05
2022-10-22T02:05:13.681Z,14.98
2022-10-22T02:07:48.368Z,14.99
2022-10-22T02:10:19.146Z,15.08
2022-10-22T02:12:53.364Z,15.14
2022-10-22T02:15:25.608Z,15.07
2022-10-22T02:18:00.681Z,15.02
2022-10-22T02:20:33.118Z,15.06
2022-10-22T02:23:03.702Z,15.09
2022-10-22T02:25:37.360Z,15.09
2022-10-22T02:28:14.440Z,14.96
2022-10-22T02:30:51.836Z,14.99
2022-10-22T02:33:27.250Z,14.90
2022-10-22T02:35:57.508Z,14.83
2022-10-22T02:38:28.334Z,14.89
2022-10-22T02:40:56.480Z,14.92
2022-10-22T02:43:25.449Z,14.89
2022-10-22T02:45:53.396Z,14.86
2022-10-22T02:48:22.600Z,14.78
2022-10-22T02:50:50.360Z,14.81
2022-10-22T02:53:18.144Z,14.81
2022-10-22T02:55:46.303Z,14.84
2022-10-22T02:58:14.172Z,14.85
2022-10-22T03:00:42.209Z,14.87
2022-10-22T03:03:10.001Z,14.85
2022-10-22T03:05:39.103Z,14.78
2022-10-22T03:08:06.871Z,14.72
2022-10-22T03:10:34.921Z,14.77
2022-10-22T03:13:03.413Z,14.79
2022-10-22T03:15:31.451Z,14.77
2022-10-22T03:17:59.182Z,14.86
2022-10-22T03:20:27.565Z,14.92
2022-10-22T03:22:58.029Z,14.84
2022-10-22T03:25:28.421Z,14.79
2022-10-22T03:28:04.490Z,14.67
2022-10-22T03:30:32.504Z,14.66
2022-10-22T03:33:00.294Z,14.66
2022-10-22T03:35:28.275Z,14.65
2022-10-22T03:38:01.105Z,14.60
2022-10-22T03:40:29.326Z,14.51
2022-10-22T03:42:58.576Z,14.50
2022-10-22T03:45:26.517Z,14.52
2022-10-22T03:47:54.391Z,14.52
2022-10-22T03:50:22.151Z,14.52
2022-10-22T03:52:49.880Z,14.48
2022-10-22T03:55:19.280Z,14.48
2022-10-22T03:57:47.015Z,14.50
2022-10-22T04:00:15.399Z,14.48
2022-10-22T04:02:43.180Z,14.48
2022-10-22T04:05:12.062Z,14.43
2022-10-22T04:07:40.078Z,14.42
2022-10-22T04:10:09.117Z,14.40
2022-10-22T04:12:38.238Z,14.41
2022-10-22T04:15:07.676Z,14.41
2022-10-22T04:17:36.654Z,14.43
2022-10-22T04:20:06.126Z,14.42
2022-10-22T04:22:34.753Z,14.42
2022-10-22T04:25:04.340Z,14.41
2022-10-22T04:27:33.272Z,14.38
2022-10-22T04:30:02.902Z,14.36
2022-10-22T04:32:30.867Z,14.34
2022-10-22T04:34:58.580Z,14.35
2022-10-22T04:37:26.370Z,14.36
2022-10-22T04:39:54.095Z,14.37
2022-10-22T04:42:21.817Z,14.36
2022-10-22T04:44:49.742Z,14.30
2022-10-22T04:47:19.061Z,14.31
2022-10-22T04:49:46.791Z,14.30
2022-10-22T04:52:14.572Z,14.34
2022-10-22T04:54:42.280Z,14.19
2022-10-22T04:57:10.004Z,14.10
2022-10-22T04:59:37.932Z,14.13
2022-10-22T05:02:05.777Z,14.15
2022-10-22T05:04:34.904Z,14.17
2022-10-22T05:07:02.749Z,14.02
2022-10-22T05:09:30.549Z,14.07
2022-10-22T05:11:58.286Z,14.07
2022-10-22T05:14:26.245Z,14.11
2022-10-22T05:16:54.950Z,14.12
2022-10-22T05:19:26.291Z,14.16
2022-10-22T05:21:58.532Z,14.14
2022-10-22T05:24:29.173Z,14.12
2022-10-22T05:26:59.584Z,14.14
2022-10-22T05:29:28.238Z,14.15
2022-10-22T05:31:56.861Z,14.13
2022-10-22T05:34:24.591Z,14.14
2022-10-22T05:36:52.294Z,14.14
2022-10-22T05:39:21.401Z,14.14
2022-10-22T05:41:49.149Z,14.12
2022-10-22T05:44:16.868Z,14.14
2022-10-22T05:46:44.802Z,14.17
2022-10-22T05:49:15.580Z,14.17
2022-10-22T05:51:43.500Z,14.22
2022-10-22T05:54:18.110Z,14.22
2022-10-22T05:56:47.351Z,14.21
2022-10-22T05:59:15.164Z,14.19
2022-10-22T06:01:43.060Z,14.11
2022-10-22T06:04:13.333Z,14.10
2022-10-22T06:06:44.935Z,14.12
2022-10-22T06:09:18.376Z,14.09
2022-10-22T06:11:48.943Z,14.05
2022-10-22T06:14:18.773Z,14.03
2022-10-22T06:16:47.500Z,14.04
2022-10-22T06:19:18.154Z,14.02
2022-10-22T06:21:47.090Z,14.07
2022-10-22T06:24:15.664Z,14.10
2022-10-22T06:26:43.777Z,14.15
2022-10-22T06:29:12.905Z,14.18
2022-10-22T06:31:41.732Z,14.23
2022-10-22T06:34:13.958Z,14.22
2022-10-22T06:36:43.946Z,14.29
2022-10-22T06:39:13.675Z,14.35
2022-10-22T06:41:41.745Z,14.42
2022-10-22T06:44:15.060Z,14.44
2022-10-22T06:46:43.609Z,14.50
2022-10-22T06:49:14.632Z,14.56
2022-10-22T06:51:42.516Z,14.59
2022-10-22T06:54:11.077Z,14.66
2022-10-22T06:56:38.876Z,14.72
2022-10-22T06:59:06.697Z,14.80
2022-10-22T07:01:36.508Z,14.95
2022-10-22T07:04:05.892Z,15.03
2022-10-22T07:06:34.092Z,15.13
2022-10-22T07:09:02.471Z,15.23
2022-10-22T07:11:38.893Z,15.25
2022-10-22T07:14:06.680Z,15.41
2022-10-22T07:16:36.352Z,15.50
2022-10-22T07:19:05.242Z,15.55
2022-10-22T07:21:33.108Z,15.66
2022-10-22T07:24:01.129Z,15.72
2022-10-22T07:26:31.032Z,15.83
2022-10-22T07:28:59.899Z,15.90
2022-10-22T07:31:28.317Z,15.95
2022-10-22T07:33:58.136Z,15.96
2022-10-22T07:36:26.004Z,16.11
2022-10-22T07:38:57.207Z,16.22
2022-10-22T07:41:26.440Z,16.26
2022-10-22T07:43:55.834Z,16.38
2022-10-22T07:46:24.702Z,16.40
2022-10-22T07:48:52.567Z,16.43
2022-10-22T07:51:21.820Z,16.55
2022-10-22T07:53:49.592Z,16.55
2022-10-22T07:56:17.636Z,16.48
2022-10-22T07:58:45.411Z,16.57
2022-10-22T08:01:13.227Z,16.47
2022-10-22T08:03:41.009Z,16.62
2022-10-22T08:06:12.632Z,16.67
2022-10-22T08:08:43.327Z,16.75
2022-10-22T08:11:12.740Z,16.80
2022-10-22T08:13:45.373Z,16.81
2022-10-22T08:16:14.733Z,16.84
2022-10-22T08:18:43.241Z,16.86
2022-10-22T08:21:11.372Z,17.00
2022-10-22T08:23:40.645Z,17.08
2022-10-22T08:26:09.094Z,17.25
2022-10-22T08:28:37.739Z,17.40
2022-10-22T08:31:07.286Z,17.50
2022-10-22T08:33:35.208Z,17.47
2022-10-22T08:36:03.382Z,17.57
2022-10-22T08:38:32.542Z,17.69
2022-10-22T08:41:11.498Z,17.71
2022-10-22T08:44:24.257Z,17.67
2022-10-22T08:47:21.397Z,17.73
2022-10-22T08:49:52.743Z,17.89
2022-10-22T08:52:21.720Z,17.85
2022-10-22T08:54:54.566Z,17.94
2022-10-22T08:57:53.897Z,18.23
2022-10-22T09:00:30.977Z,18.42
2022-10-22T09:03:26.974Z,18.64
2022-10-22T09:06:05.277Z,18.83
2022-10-22T09:08:35.245Z,18.98
2022-10-22T09:11:15.766Z,19.10
2022-10-22T09:13:46.813Z,19.11
2022-10-22T09:16:18.915Z,19.26
2022-10-22T09:19:05.804Z,19.27
2022-10-22T09:21:51.766Z,19.30
2022-10-22T09:24:33.499Z,19.27
2022-10-22T09:27:05.332Z,19.35
2022-10-22T09:29:34.787Z,19.31
2022-10-22T09:32:03.523Z,19.30
2022-10-22T09:34:32.427Z,19.28
2022-10-22T09:37:03.516Z,18.99
2022-10-22T09:39:37.039Z,19.04
2022-10-22T09:42:05.771Z,19.04
2022-10-22T09:44:38.281Z,19.13
2022-10-22T09:47:07.060Z,19.22
2022-10-22T09:49:36.652Z,19.25
2022-10-22T09:52:28.783Z,19.28
2022-10-22T09:54:57.302Z,19.25
2022-10-22T09:57:27.458Z,19.36
2022-10-22T09:59:57.638Z,19.38
2022-10-22T10:02:44.441Z,19.30
2022-10-22T10:05:27.951Z,19.23
2022-10-22T10:07:58.053Z,19.30
2022-10-22T10:10:36.961Z,19.23
2022-10-22T10:13:30.294Z,19.23
2022-10-22T10:16:11.897Z,19.13
2022-10-22T10:19:02.783Z,19.05
2022-10-22T10:21:46.052Z,19.06
2022-10-22T10:24:28.871Z,19.20
2022-10-22T10:27:05.091Z,19.36
2022-10-22T10:29:49.495Z,19.39
2022-10-22T10:32:40.980Z,19.36
2022-10-22T10:35:23.802Z,19.39
2022-10-22T10:38:09.199Z,19.41
2022-10-22T10:40:48.679Z,19.39
2022-10-22T10:43:29.857Z,19.42
2022-10-22T10:46:12.190Z,19.26
2022-10-22T10:48:54.200Z,19.28
2022-10-22T10:51:41.439Z,19.39
2022-10-22T10:54:27.670Z,19.43
2022-10-22T10:57:00.532Z,19.43
2022-10-22T10:59:49.470Z,19.49
2022-10-22T11:02:52.169Z,19.57
2022-10-22T11:05:32.180Z,19.60
2022-10-22T11:08:09.600Z,19.84
2022-10-22T11:10:44.821Z,19.84
2022-10-22T11:13:22.383Z,19.84
2022-10-22T11:16:00.114Z,19.87
2022-10-22T11:18:37.915Z,19.92
2022-10-22T11:21:26.995Z,19.75
2022-10-22T11:24:04.965Z,19.70
2022-10-22T11:26:44.334Z,19.62
2022-10-22T11:29:21.218Z,19.39
2022-10-22T11:31:51.203Z,19.29
2022-10-22T11:34:39.894Z,19.32
2022-10-22T11:37:12.763Z,19.38
2022-10-22T11:39:47.738Z,19.34
2022-10-22T11:42:21.471Z,19.27
2022-10-22T11:45:00.927Z,19.27
2022-10-22T11:47:33.178Z,19.20
2022-10-22T11:50:20.293Z,19.11
2022-10-22T11:53:02.540Z,19.05
2022-10-22T11:55:51.693Z,18.96
2022-10-22T11:58:42.424Z,18.95
2022-10-22T12:01:27.153Z,18.91
2022-10-22T12:04:20.384Z,18.93
2022-10-22T12:06:58.109Z,18.85
2022-10-22T12:09:32.437Z,18.75
2022-10-22T12:12:14.613Z,18.74
2022-10-22T12:14:55.002Z,18.64
2022-10-22T12:17:25.024Z,18.65
2022-10-22T12:20:02.758Z,18.60
2022-10-22T12:22:37.286Z,18.57
2022-10-22T12:25:19.970Z,18.42
2022-10-22T12:27:53.340Z,18.28
2022-10-22T12:30:25.222Z,18.13
2022-10-22T12:32:56.325Z,18.13
2022-10-22T12:35:26.282Z,18.15
2022-10-22T12:37:57.159Z,18.05
2022-10-22T12:40:29.416Z,18.13
2022-10-22T12:43:00.465Z,18.12
2022-10-22T12:45:32.838Z,18.63
2022-10-22T12:48:05.452Z,18.97
2022-10-22T12:50:40.309Z,19.34
2022-10-22T12:53:16.990Z,19.37
2022-10-22T12:55:50.843Z,19.64
2022-10-22T12:58:22.630Z,19.57
2022-10-22T13:00:57.347Z,19.56
2022-10-22T13:03:32.210Z,19.67
2022-10-22T13:06:14.201Z,20.16
2022-10-22T13:08:43.409Z,20.22
2022-10-22T13:11:13.582Z,19.92
2022-10-22T13:13:45.481Z,20.31
2022-10-22T13:16:17.136Z,20.34
2022-10-22T13:18:46.377Z,20.45
2022-10-22T13:21:33.349Z,20.38
2022-10-22T13:24:18.705Z,20.63
2022-10-22T13:26:54.146Z,20.61
2022-10-22T13:29:24.109Z,20.93
2022-10-22T13:31:53.897Z,21.19
2022-10-22T13:34:25.808Z,21.50
2022-10-22T13:36:53.690Z,22.06
2022-10-22T13:39:24.618Z,22.39
2022-10-22T13:41:53.780Z,22.17
2022-10-22T13:44:21.669Z,21.93
2022-10-22T13:46:49.635Z,21.58
2022-10-22T13:49:23.273Z,21.40
2022-10-22T13:51:51.586Z,21.25
2022-10-22T13:54:23.716Z,21.44
2022-10-22T13:56:53.772Z,21.11
2022-10-22T13:59:23.863Z,21.14
2022-10-22T14:01:54.684Z,20.86
2022-10-22T14:04:22.696Z,20.66
2022-10-22T14:06:50.459Z,20.31
2022-10-22T14:09:18.812Z,20.03
2022-10-22T14:11:46.582Z,19.69
2022-10-22T14:14:17.174Z,19.61
2022-10-22T14:16:45.460Z,19.45
2022-10-22T14:19:17.477Z,19.52
2022-10-22T14:21:45.752Z,19.41
2022-10-22T14:24:13.689Z,19.64
2022-10-22T14:26:41.776Z,20.36
2022-10-22T14:29:10.699Z,20.73
2022-10-22T14:31:43.821Z,20.81
2022-10-22T14:34:15.931Z,20.80
2022-10-22T14:36:44.314Z,20.68
2022-10-22T14:39:13.899Z,20.51
2022-10-22T14:41:42.750Z,20.40
2022-10-22T14:44:13.811Z,20.33
2022-10-22T14:46:44.008Z,20.24
2022-10-22T14:49:13.220Z,20.07
2022-10-22T14:51:42.172Z,19.90
2022-10-22T14:54:09.918Z,19.84
2022-10-22T14:59:10.627Z,19.74
2022-10-22T15:01:39.290Z,19.59
2022-10-22T15:04:08.647Z,19.62
2022-10-22T15:06:36.640Z,19.72
2022-10-22T15:09:05.252Z,19.87
2022-10-22T15:11:33.116Z,19.86
2022-10-22T15:14:00.914Z,19.85
2022-10-22T15:16:28.821Z,19.79
2022-10-22T15:18:57.128Z,19.78
2022-10-22T15:21:26.352Z,19.81
2022-10-22T15:23:54.276Z,19.74
2022-10-22T15:26:22.044Z,19.58
2022-10-22T15:28:50.274Z,19.52
2022-10-22T15:31:47.526Z,19.43
2022-10-22T15:34:20.304Z,19.30
2022-10-22T15:36:49.820Z,19.22
2022-10-22T15:39:18.019Z,19.12
2022-10-22T15:41:47.191Z,19.03
2022-10-22T15:44:17.677Z,18.92
2022-10-22T15:46:45.516Z,18.83
2022-10-22T15:49:14.373Z,18.70
2022-10-22T15:51:43.990Z,18.66
2022-10-22T15:54:17.167Z,18.51
2022-10-22T15:56:46.023Z,18.22
2022-10-22T15:59:16.812Z,18.13
2022-10-22T16:01:44.910Z,18.00
2022-10-22T16:04:13.037Z,17.92
2022-10-22T16:06:44.549Z,17.87
2022-10-22T16:09:18.575Z,17.78
2022-10-22T16:11:47.088Z,17.71
2022-10-22T16:14:17.421Z,17.69
2022-10-22T16:16:51.826Z,17.63
2022-10-22T16:19:22.368Z,17.52
2022-10-22T16:21:52.500Z,17.43
2022-10-22T16:24:23.145Z,17.32
2022-10-22T16:26:53.047Z,17.28
2022-10-22T16:29:20.878Z,17.19
2022-10-22T16:31:48.673Z,17.05
2022-10-22T16:34:16.497Z,16.96
2022-10-22T16:36:44.514Z,16.91
2022-10-22T16:39:12.455Z,16.86
2022-10-22T16:41:41.580Z,16.81
2022-10-22T16:44:10.264Z,16.75
2022-10-22T16:46:39.847Z,16.70
2022-10-22T16:49:07.997Z,16.56
2022-10-22T16:51:37.929Z,16.43
2022-10-22T16:54:08.401Z,16.36
2022-10-22T16:56:41.793Z,16.27
2022-10-22T16:59:09.621Z,16.30
2022-10-22T17:01:41.278Z,16.27
2022-10-22T17:04:12.686Z,16.18
2022-10-22T17:06:40.411Z,16.06
2022-10-22T17:09:08.227Z,16.06
2022-10-22T17:11:39.128Z,16.02
2022-10-22T17:14:10.867Z,15.92
2022-10-22T17:16:38.941Z,15.82
2022-10-22T17:19:06.965Z,15.81
2022-10-22T17:21:35.824Z,15.73
2022-10-22T17:24:04.205Z,15.57
2022-10-22T17:26:34.647Z,15.44
2022-10-22T17:29:03.406Z,15.38
2022-10-22T17:31:37.223Z,15.32
2022-10-22T17:34:07.569Z,15.31
2022-10-22T17:36:39.910Z,15.31
2022-10-22T17:39:08.671Z,15.31
2022-10-22T17:41:39.160Z,15.29
2022-10-22T17:44:09.506Z,15.27
2022-10-22T17:49:38.328Z,15.16
2022-10-22T17:52:06.561Z,15.09
2022-10-22T17:54:35.004Z,14.96
2022-10-22T17:57:03.036Z,14.85
2022-10-22T17:59:31.499Z,14.80
2022-10-22T18:02:03.646Z,14.78
2022-10-22T18:04:33.025Z,14.79
2022-10-22T18:07:00.965Z,14.81
2022-10-22T18:09:29.406Z,14.83
2022-10-22T18:11:57.281Z,14.82
2022-10-22T18:14:25.424Z,14.79
2022-10-22T18:16:54.684Z,14.70
2022-10-22T18:19:24.600Z,14.70
2022-10-22T18:21:52.496Z,14.67
2022-10-22T18:24:21.995Z,14.69
2022-10-22T18:26:49.872Z,14.64
2022-10-22T18:29:19.718Z,14.56
2022-10-22T18:31:48.656Z,14.57
2022-10-22T18:34:20.204Z,14.54
2022-10-22T18:36:52.245Z,14.54
2022-10-22T18:39:20.116Z,14.56
2022-10-22T18:41:48.031Z,14.51
2022-10-22T18:44:16.964Z,14.49
2022-10-22T18:46:44.933Z,14.42
2022-10-22T18:49:18.581Z,14.43
2022-10-22T18:51:48.850Z,14.45
2022-10-22T18:54:23.155Z,14.43
2022-10-22T18:56:52.565Z,14.45
2022-10-22T18:59:23.575Z,14.40
2022-10-22T19:01:52.121Z,14.22
2022-10-22T19:04:20.353Z,14.15
2022-10-22T19:06:48.202Z,14.23
2022-10-22T19:09:18.224Z,14.29
2022-10-22T19:11:47.030Z,14.29
2022-10-22T19:14:15.221Z,14.26
2022-10-22T19:16:43.525Z,14.23
2022-10-22T19:19:16.132Z,14.20
2022-10-22T19:21:44.670Z,14.16
2022-10-22T19:24:15.900Z,14.15
2022-10-22T19:26:46.733Z,14.14
2022-10-22T19:29:17.454Z,14.13
2022-10-22T19:31:45.843Z,14.13
2022-10-22T19:34:13.942Z,14.11
2022-10-22T19:36:41.865Z,14.11
2022-10-22T19:39:09.768Z,14.10
2022-10-22T19:41:37.664Z,14.07
2022-10-22T19:44:07.138Z,14.08
2022-10-22T19:46:35.017Z,14.09
2022-10-22T19:49:04.275Z,13.99
2022-10-22T19:51:34.388Z,13.87
2022-10-22T19:54:05.280Z,13.78
2022-10-22T19:56:34.731Z,13.74
2022-10-22T19:59:06.525Z,13.77
2022-10-22T20:01:35.641Z,13.81
2022-10-22T20:04:06.956Z,13.85
2022-10-22T20:06:44.436Z,13.86
2022-10-22T20:09:13.464Z,13.79
2022-10-22T20:11:41.421Z,13.82
2022-10-22T20:14:09.249Z,13.80
2022-10-22T20:16:39.139Z,13.80
2022-10-22T20:19:08.617Z,13.82
2022-10-22T20:21:37.482Z,13.84
2022-10-22T20:24:05.723Z,13.82
2022-10-22T20:26:34.339Z,13.84
2022-10-22T20:29:02.569Z,13.82
2022-10-22T20:31:30.664Z,13.86
2022-10-22T20:34:01.972Z,13.68
2022-10-22T20:36:31.550Z,13.72
2022-10-22T20:39:02.936Z,13.76
2022-10-22T20:41:31.016Z,13.88
2022-10-22T20:43:58.763Z,14.01
2022-10-22T20:46:29.436Z,14.07
2022-10-22T20:49:03.206Z,14.13
2022-10-22T20:51:31.860Z,14.21
2022-10-22T20:53:59.698Z,14.13
2022-10-22T20:56:29.665Z,14.15
2022-10-22T20:59:05.618Z,14.19
2022-10-22T21:01:38.024Z,14.25
2022-10-22T21:04:08.535Z,14.34
2022-10-22T21:06:41.345Z,14.35
2022-10-22T21:09:12.036Z,14.27
2022-10-22T21:11:43.129Z,14.34
2022-10-22T21:14:14.892Z,14.36
2022-10-22T21:16:44.258Z,14.33
2022-10-22T21:19:13.402Z,14.37
2022-10-22T21:21:41.332Z,14.36
2022-10-22T21:24:09.556Z,14.35
2022-10-22T21:26:39.001Z,14.31
2022-10-22T21:29:07.275Z,14.30
2022-10-22T21:31:35.833Z,14.29
2022-10-22T21:34:03.795Z,14.23
2022-10-22T21:36:33.308Z,14.16
2022-10-22T21:39:02.478Z,14.14
2022-10-22T21:41:30.372Z,14.13
2022-10-22T21:43:58.273Z,14.17
2022-10-22T21:46:28.669Z,14.18
2022-10-22T21:49:01.991Z,14.25
2022-10-22T21:51:33.662Z,14.31
2022-10-22T21:54:01.732Z,14.34
2022-10-22T21:56:32.850Z,14.35
2022-10-22T21:59:01.791Z,14.30
2022-10-22T22:01:30.240Z,14.25
2022-10-22T22:03:58.433Z,14.32
2022-10-22T22:06:32.048Z,14.33
2022-10-22T22:09:04.743Z,14.29
2022-10-22T22:11:32.938Z,14.31
2022-10-22T22:14:00.772Z,14.35
2022-10-22T22:16:34.893Z,14.39
2022-10-22T22:19:07.485Z,14.45
2022-10-22T22:21:39.289Z,14.45
2022-10-22T22:24:12.767Z,14.47
2022-10-22T22:26:41.739Z,14.55
2022-10-22T22:29:10.795Z,14.55
2022-10-22T22:31:40.053Z,14.56
2022-10-22T22:34:13.320Z,14.52
2022-10-22T22:36:45.521Z,14.52
2022-10-22T22:39:18.051Z,14.49
2022-10-22T22:41:46.678Z,14.44
2022-10-22T22:44:15.039Z,14.41
2022-10-22T22:46:43.277Z,14.49
2022-10-22T22:49:12.590Z,14.44
2022-10-22T22:51:40.592Z,14.38
2022-10-22T22:54:11.305Z,14.32
2022-10-22T22:56:40.926Z,14.34
2022-10-22T22:59:10.317Z,14.35
2022-10-22T23:01:41.414Z,14.33
2022-10-22T23:04:16.225Z,14.30
2022-10-22T23:06:46.484Z,14.42
2022-10-22T23:09:16.513Z,14.47
2022-10-22T23:11:47.718Z,14.55
2022-10-22T23:14:18.967Z,14.60
2022-10-22T23:16:50.631Z,14.69
2022-10-22T23:19:21.784Z,14.69
2022-10-22T23:21:54.418Z,14.73
2022-10-22T23:24:27.485Z,14.75
2022-10-22T23:27:01.646Z,14.77
2022-10-22T23:29:32.725Z,14.73
2022-10-22T23:32:02.012Z,14.69
2022-10-22T23:34:32.376Z,14.62
2022-10-22T23:37:00.722Z,14.60
2022-10-22T23:39:29.707Z,14.60
2022-10-22T23:41:59.302Z,14.57
2022-10-22T23:44:27.646Z,14.49
2022-10-22T23:46:55.706Z,14.53
2022-10-22T23:49:23.613Z,14.61
2022-10-22T23:51:51.467Z,14.65
2022-10-22T23:54:19.363Z,14.63
2022-10-22T23:56:47.358Z,14.60
2022-10-22T23:59:16.850Z,14.49
